createdAt,value
2022-08-09T00:04:10.599Z,17.50
2022-08-09T00:07:54.286Z,17.40
2022-08-09T00:12:03.473Z,17.40
2022-08-09T00:16:08.980Z,17.30
2022-08-09T00:20:15.778Z,17.30
2022-08-09T00:24:18.615Z,17.20
2022-08-09T00:28:23.447Z,17.10
2022-08-09T00:32:31.535Z,17.10
2022-08-09T00:36:34.403Z,17.00
2022-08-09T00:44:41.262Z,16.90
2022-08-09T00:48:47.595Z,16.80
2022-08-09T00:52:53.876Z,16.70
2022-08-09T00:56:56.838Z,16.70
2022-08-09T01:00:59.814Z,16.60
2022-08-09T01:05:14.056Z,16.60
2022-08-09T01:09:21.249Z,16.60
2022-08-09T01:13:31.063Z,16.50
2022-08-09T01:17:47.194Z,16.50
2022-08-09T01:21:54.374Z,16.50
2022-08-09T01:26:15.129Z,16.40
2022-08-09T01:30:35.681Z,16.40
2022-08-09T01:34:44.162Z,16.30
2022-08-09T01:38:48.995Z,16.30
2022-08-09T01:42:52.298Z,16.30
2022-08-09T01:46:56.853Z,16.20
2022-08-09T01:51:00.813Z,16.20
2022-08-09T01:55:06.963Z,16.10
2022-08-09T01:59:16.189Z,16.10
2022-08-09T02:03:21.485Z,16.10
2022-08-09T02:08:39.642Z,16.00
2022-08-09T02:11:49.613Z,16.00
2022-08-09T02:15:55.218Z,15.90
2022-08-09T02:20:02.094Z,15.80
2022-08-09T02:24:07.032Z,15.80
2022-08-09T02:28:17.847Z,15.80
2022-08-09T02:32:22.265Z,15.70
2022-08-09T02:36:31.284Z,15.60
2022-08-09T02:40:35.807Z,15.60
2022-08-09T02:44:40.744Z,15.50
2022-08-09T02:48:46.004Z,15.50
2022-08-09T02:52:55.413Z,15.40
2022-08-09T02:57:01.929Z,15.40
2022-08-09T03:01:21.822Z,15.40
2022-08-09T03:05:34.378Z,15.30
2022-08-09T03:09:42.954Z,15.30
2022-08-09T03:13:59.406Z,15.20
2022-08-09T03:18:09.836Z,15.20
2022-08-09T03:22:24.918Z,15.10
2022-08-09T03:26:34.915Z,15.10
2022-08-09T03:30:48.941Z,15.10
2022-08-09T03:34:54.159Z,15.00
2022-08-09T03:38:58.567Z,15.00
2022-08-09T03:43:02.768Z,15.00
2022-08-09T03:47:05.747Z,14.90
2022-08-09T03:51:44.011Z,14.90
2022-08-09T03:55:36.072Z,14.90
2022-08-09T03:59:53.910Z,14.80
2022-08-09T04:04:02.325Z,14.80
2022-08-09T04:08:07.681Z,14.70
2022-08-09T04:12:30.956Z,14.70
2022-08-09T04:16:35.780Z,14.70
2022-08-09T04:20:38.674Z,14.70
2022-08-09T04:24:41.701Z,14.60
2022-08-09T04:28:46.859Z,14.60
2022-08-09T04:32:51.536Z,14.60
2022-08-09T04:36:54.383Z,14.60
2022-08-09T04:40:58.238Z,14.60
2022-08-09T04:45:01.425Z,14.60
2022-08-09T04:49:06.026Z,14.60
2022-08-09T04:53:13.452Z,14.60
2022-08-09T04:57:16.736Z,14.60
2022-08-09T05:01:26.776Z,14.70
2022-08-09T05:05:32.182Z,14.70
2022-08-09T05:09:53.848Z,14.70
2022-08-09T05:13:58.766Z,14.80
2022-08-09T05:18:37.691Z,14.80
2022-08-09T05:22:33.611Z,14.80
2022-08-09T05:26:46.301Z,14.90
2022-08-09T05:30:51.599Z,15.00
2022-08-09T05:34:54.779Z,15.10
2022-08-09T05:39:00.170Z,15.20
2022-08-09T05:43:03.129Z,15.30
2022-08-09T05:47:07.708Z,15.30
2022-08-09T05:51:16.882Z,15.40
2022-08-09T05:55:36.560Z,15.50
2022-08-09T05:59:40.102Z,15.60
2022-08-09T06:03:58.076Z,15.70
2022-08-09T06:08:05.413Z,15.80
2022-08-09T06:12:15.494Z,15.90
2022-08-09T06:16:20.045Z,16.00
2022-08-09T06:20:22.945Z,16.10
2022-08-09T06:24:25.746Z,16.10
2022-08-09T06:36:59.694Z,16.50
2022-08-09T06:41:03.504Z,16.60
2022-08-09T06:46:06.627Z,16.60
2022-08-09T06:50:11.298Z,16.70
2022-08-09T06:53:55.983Z,16.90
2022-08-09T06:58:04.805Z,17.10
2022-08-09T07:02:07.792Z,17.20
2022-08-09T07:30:55.151Z,18.30
2022-08-09T07:34:58.116Z,18.40
2022-08-09T07:39:02.298Z,18.50
2022-08-09T08:00:09.360Z,19.60
2022-08-09T08:04:12.152Z,19.60
2022-08-09T08:09:01.019Z,19.80
2022-08-09T08:12:43.193Z,20.00
2022-08-09T08:17:00.447Z,20.20
2022-08-09T08:21:04.156Z,20.40
2022-08-09T08:25:13.480Z,20.60
2022-08-09T08:29:20.308Z,20.80
2022-08-09T08:33:49.693Z,21.00
2022-08-09T08:38:02.296Z,21.30
2022-08-09T08:42:09.511Z,21.50
2022-08-09T08:46:33.398Z,21.80
2022-08-09T08:50:38.807Z,22.10
2022-08-09T08:54:41.623Z,22.30
2022-08-09T08:58:46.421Z,22.60
2022-08-09T09:02:52.958Z,22.80
2022-08-09T09:07:02.307Z,23.00
2022-08-09T09:11:06.155Z,23.30
2022-08-09T09:15:09.229Z,23.60
2022-08-09T09:19:37.004Z,23.90
2022-08-09T09:23:49.582Z,24.20
2022-08-09T09:28:03.733Z,24.40
2022-08-09T09:32:15.689Z,24.80
2022-08-09T09:36:20.395Z,25.00
2022-08-09T09:40:41.818Z,25.30
2022-08-09T09:44:56.674Z,25.60
2022-08-09T09:49:00.294Z,25.90
2022-08-09T09:53:04.121Z,26.20
2022-08-09T09:58:03.221Z,26.50
2022-08-09T10:01:40.790Z,26.80
2022-08-09T10:06:03.310Z,27.10
2022-08-09T10:10:07.917Z,27.20
2022-08-09T10:14:30.568Z,27.40
2022-08-09T10:18:36.161Z,27.60
2022-08-09T10:22:39.345Z,27.70
2022-08-09T10:26:42.235Z,27.90
2022-08-09T10:35:14.716Z,28.20
2022-08-09T10:39:19.483Z,28.30
2022-08-09T10:43:22.800Z,28.40
2022-08-09T10:48:13.449Z,28.40
2022-08-09T10:52:03.196Z,28.50
2022-08-09T10:56:17.559Z,28.60
2022-08-09T11:00:35.684Z,28.90
2022-08-09T11:04:56.093Z,29.10
2022-08-09T11:09:08.647Z,29.30
2022-08-09T11:13:49.328Z,29.50
2022-08-09T11:17:46.171Z,29.70
2022-08-09T11:21:57.102Z,29.90
2022-08-09T11:26:28.607Z,30.00
2022-08-09T11:30:35.665Z,30.10
2022-08-09T11:34:43.976Z,30.20
2022-08-09T11:39:00.760Z,30.30
2022-08-09T11:43:04.142Z,30.40
2022-08-09T11:47:07.016Z,30.60
2022-08-09T11:52:54.089Z,30.70
2022-08-09T11:55:52.020Z,30.80
2022-08-09T11:59:56.908Z,30.90
2022-08-09T12:04:00.436Z,31.00
2022-08-09T12:08:08.070Z,31.10
2022-08-09T12:12:28.833Z,31.10
2022-08-09T12:16:38.196Z,31.20
2022-08-09T12:20:43.676Z,31.30
2022-08-09T12:24:49.482Z,31.40
2022-08-09T12:29:15.215Z,31.40
2022-08-09T12:33:20.844Z,31.50
2022-08-09T12:37:31.550Z,31.50
2022-08-09T12:41:40.039Z,31.60
2022-08-09T12:46:00.405Z,31.60
2022-08-09T12:50:19.922Z,31.70
2022-08-09T12:54:26.709Z,31.80
2022-08-09T12:58:29.536Z,31.80
2022-08-09T13:02:48.339Z,31.80
2022-08-09T13:06:58.761Z,31.80
2022-08-09T13:11:02.469Z,31.80
2022-08-09T13:15:25.282Z,31.80
2022-08-09T13:20:10.100Z,31.90
2022-08-09T13:24:44.546Z,32.00
2022-08-09T13:28:34.136Z,31.80
2022-08-09T13:32:45.991Z,31.70
2022-08-09T13:36:52.414Z,31.70
2022-08-09T13:41:54.353Z,31.60
2022-08-09T13:45:32.211Z,31.70
2022-08-09T13:49:57.374Z,31.70
2022-08-09T13:54:01.849Z,31.80
2022-08-09T13:58:08.057Z,32.00
2022-08-09T14:02:16.815Z,32.00
2022-08-09T14:06:29.521Z,32.00
2022-08-09T14:10:37.701Z,32.00
2022-08-09T14:14:54.034Z,31.90
2022-08-09T14:18:59.674Z,31.70
2022-08-09T14:23:02.576Z,31.60
2022-08-09T14:27:20.023Z,31.50
2022-08-09T14:31:36.242Z,31.60
2022-08-09T14:35:52.928Z,31.70
2022-08-09T14:39:56.993Z,31.70
2022-08-09T14:43:59.872Z,31.80
2022-08-09T14:48:07.076Z,31.80
2022-08-09T14:52:10.475Z,31.90
2022-08-09T14:56:13.385Z,31.90
2022-08-09T15:00:16.354Z,32.00
2022-08-09T15:04:20.660Z,31.80
2022-08-09T15:08:30.294Z,31.80
2022-08-09T15:12:33.779Z,31.80
2022-08-09T15:16:36.798Z,31.80
2022-08-09T15:22:00.682Z,31.80
2022-08-09T15:25:06.051Z,31.80
2022-08-09T15:29:09.672Z,31.80
2022-08-09T15:50:28.939Z,32.20
2022-08-09T15:54:43.009Z,32.20
2022-08-09T15:58:51.432Z,32.50
2022-08-09T16:02:56.249Z,32.70
2022-08-09T16:07:01.927Z,33.10
2022-08-09T16:56:50.783Z,34.50
2022-08-09T17:00:54.893Z,34.50
2022-08-09T17:04:58.164Z,34.30
2022-08-09T17:09:17.838Z,34.00
2022-08-09T17:13:25.194Z,33.80
2022-08-09T17:17:51.286Z,33.50
2022-08-09T17:21:55.829Z,33.20
2022-08-09T17:26:01.943Z,32.80
2022-08-09T17:30:14.094Z,32.50
2022-08-09T17:34:38.054Z,32.20
2022-08-09T17:38:41.291Z,31.80
2022-08-09T17:42:59.764Z,31.40
2022-08-09T17:47:15.195Z,31.10
2022-08-09T17:51:19.936Z,30.80
2022-08-09T17:55:23.005Z,30.40
2022-08-09T17:59:26.480Z,30.20
2022-08-09T18:03:42.392Z,29.90
2022-08-09T18:07:48.695Z,29.70
2022-08-09T18:12:14.574Z,29.50
2022-08-09T18:16:16.378Z,29.30
2022-08-09T18:20:58.278Z,29.10
2022-08-09T18:24:43.704Z,28.90
2022-08-09T18:30:34.699Z,28.60
2022-08-09T18:33:12.830Z,28.40
2022-08-09T18:37:47.351Z,28.20
2022-08-09T18:41:53.275Z,28.00
2022-08-09T18:46:50.611Z,27.90
2022-08-09T18:50:19.445Z,27.60
2022-08-09T18:54:28.479Z,27.50
2022-08-09T18:58:33.214Z,27.30
2022-08-09T19:02:36.394Z,27.10
2022-08-09T19:06:39.345Z,27.00
2022-08-09T19:10:54.106Z,26.80
2022-08-09T19:14:57.328Z,26.60
2022-08-09T19:19:00.507Z,26.40
2022-08-09T19:23:06.499Z,26.20
2022-08-09T19:27:11.106Z,26.10
2022-08-09T19:31:17.245Z,25.90
2022-08-09T19:35:20.096Z,25.80
2022-08-09T19:40:02.791Z,25.50
2022-08-09T19:44:02.272Z,25.40
2022-08-09T19:48:05.975Z,25.30
2022-08-09T19:52:14.147Z,25.20
2022-08-09T19:56:17.115Z,25.10
2022-08-09T20:00:33.090Z,25.00
2022-08-09T20:04:40.409Z,24.90
2022-08-09T20:08:50.746Z,24.70
2022-08-09T20:12:53.581Z,24.60
2022-08-09T20:16:58.168Z,24.50
2022-08-09T20:21:02.071Z,24.40
2022-08-09T20:25:05.378Z,24.20
2022-08-09T20:29:18.588Z,24.10
2022-08-09T20:33:23.479Z,23.90
2022-08-09T20:38:08.640Z,23.80
2022-08-09T20:41:50.015Z,23.70
2022-08-09T20:45:59.228Z,23.60
2022-08-09T20:50:14.745Z,23.40
2022-08-09T20:54:51.976Z,23.40
2022-08-09T20:58:58.009Z,23.20
2022-08-09T21:03:01.997Z,23.00
2022-08-09T21:07:12.043Z,22.90
2022-08-09T21:15:39.820Z,22.60
2022-08-09T21:20:17.591Z,22.50
2022-08-09T21:24:28.580Z,22.30
2022-08-09T21:28:36.261Z,22.20
2022-08-09T21:32:41.340Z,22.00
2022-08-09T21:36:55.432Z,21.90
2022-08-09T21:41:00.794Z,21.80
2022-08-09T21:45:04.116Z,21.70
2022-08-09T21:49:07.446Z,21.60
2022-08-09T21:53:15.613Z,21.40
2022-08-09T21:57:38.844Z,21.30
2022-08-09T22:02:01.490Z,21.20
2022-08-09T22:06:05.818Z,21.20
2022-08-09T22:10:09.308Z,21.10
2022-08-09T22:14:14.857Z,21.00
2022-08-09T22:18:30.815Z,20.90
2022-08-09T22:22:36.148Z,20.80
2022-08-09T22:26:40.140Z,20.80
2022-08-09T22:30:52.266Z,20.70
2022-08-09T22:35:02.715Z,20.60
2022-08-09T22:39:09.916Z,20.50
2022-08-09T22:44:01.691Z,20.40
2022-08-09T22:48:33.850Z,20.30
2022-08-09T22:52:20.005Z,20.20
2022-08-09T22:56:30.564Z,20.10
2022-08-09T23:00:37.449Z,20.00
2022-08-09T23:04:41.904Z,19.90
2022-08-09T23:08:47.673Z,19.90
2022-08-09T23:12:50.554Z,19.80
2022-08-09T23:16:53.445Z,19.70
2022-08-09T23:20:57.702Z,19.70
2022-08-09T23:25:00.631Z,19.60
2022-08-09T23:29:03.560Z,19.50
2022-08-09T23:33:06.440Z,19.50
2022-08-09T23:37:10.771Z,19.40
2022-08-09T23:41:27.565Z,19.40
2022-08-09T23:45:37.491Z,19.30
2022-08-09T23:49:41.240Z,19.20
2022-08-09T23:53:45.483Z,19.20
2022-08-09T23:58:07.236Z,19.10
